sensor_id;sensor_type;location;lat;lon;timestamp;P1;durP1;ratioP1;P2;durP2;ratioP2
29466;SDS011;60968;37.490;-122.288;2023-04-08T00:01:16;0.57;;;0.20;;
29466;SDS011;60968;37.490;-122.288;2023-04-08T00:04:17;0.07;;;0.07;;
29466;SDS011;60968;37.490;-122.288;2023-04-08T00:07:19;0.20;;;0.20;;
29466;SDS011;60968;37.490;-122.288;2023-04-08T00:10:20;0.53;;;0.20;;
29466;SDS011;60968;37.490;-122.288;2023-04-08T00:13:22;0.20;;;0.10;;
29466;SDS011;60968;37.490;-122.288;2023-04-08T00:16:26;0.30;;;0.10;;
29466;SDS011;60968;37.490;-122.288;2023-04-08T00:19:27;0.20;;;0.20;;
29466;SDS011;60968;37.490;-122.288;2023-04-08T00:22:28;0.20;;;0.20;;
29466;SDS011;60968;37.490;-122.288;2023-04-08T00:25:29;0.73;;;0.20;;
29466;SDS011;60968;37.490;-122.288;2023-04-08T00:28:30;2.17;;;0.40;;
29466;SDS011;60968;37.490;-122.288;2023-04-08T00:31:32;0.80;;;0.20;;
29466;SDS011;60968;37.490;-122.288;2023-04-08T00:34:35;1.77;;;0.30;;
29466;SDS011;60968;37.490;-122.288;2023-04-08T00:37:35;0.43;;;0.10;;
29466;SDS011;60968;37.490;-122.288;2023-04-08T00:40:36;1.73;;;0.40;;
29466;SDS011;60968;37.490;-122.288;2023-04-08T00:43:38;0.93;;;0.10;;
29466;SDS011;60968;37.490;-122.288;2023-04-08T00:46:41;1.70;;;0.50;;
29466;SDS011;60968;37.490;-122.288;2023-04-08T00:49:43;1.80;;;0.33;;
29466;SDS011;60968;37.490;-122.288;2023-04-08T00:52:46;0.33;;;0.17;;
29466;SDS011;60968;37.490;-122.288;2023-04-08T00:55:47;2.00;;;0.23;;
29466;SDS011;60968;37.490;-122.288;2023-04-08T00:58:51;0.50;;;0.20;;
29466;SDS011;60968;37.490;-122.288;2023-04-08T01:01:56;1.03;;;0.20;;
29466;SDS011;60968;37.490;-122.288;2023-04-08T01:05:28;1.90;;;0.50;;
29466;SDS011;60968;37.490;-122.288;2023-04-08T01:08:43;1.77;;;0.40;;
29466;SDS011;60968;37.490;-122.288;2023-04-08T01:11:45;3.47;;;0.40;;
29466;SDS011;60968;37.490;-122.288;2023-04-08T01:14:49;1.17;;;0.47;;
29466;SDS011;60968;37.490;-122.288;2023-04-08T01:17:57;1.60;;;0.50;;
29466;SDS011;60968;37.490;-122.288;2023-04-08T01:21:00;3.67;;;0.40;;
29466;SDS011;60968;37.490;-122.288;2023-04-08T01:24:08;1.90;;;0.40;;
29466;SDS011;60968;37.490;-122.288;2023-04-08T01:27:29;0.33;;;0.30;;
29466;SDS011;60968;37.490;-122.288;2023-04-08T01:30:33;2.43;;;0.37;;
29466;SDS011;60968;37.490;-122.288;2023-04-08T01:33:38;0.90;;;0.40;;
29466;SDS011;60968;37.490;-122.288;2023-04-08T01:36:40;1.03;;;0.40;;
29466;SDS011;60968;37.490;-122.288;2023-04-08T01:39:46;1.50;;;0.50;;
29466;SDS011;60968;37.490;-122.288;2023-04-08T01:42:49;2.97;;;0.53;;
29466;SDS011;60968;37.490;-122.288;2023-04-08T01:45:53;1.40;;;0.40;;
29466;SDS011;60968;37.490;-122.288;2023-04-08T01:48:55;1.07;;;0.30;;
29466;SDS011;60968;37.490;-122.288;2023-04-08T01:51:58;1.27;;;0.20;;
29466;SDS011;60968;37.490;-122.288;2023-04-08T01:55:01;0.20;;;0.20;;
29466;SDS011;60968;37.490;-122.288;2023-04-08T01:58:02;1.07;;;0.47;;
29466;SDS011;60968;37.490;-122.288;2023-04-08T02:01:08;0.47;;;0.20;;
29466;SDS011;60968;37.490;-122.288;2023-04-08T02:04:11;0.93;;;0.10;;
29466;SDS011;60968;37.490;-122.288;2023-04-08T02:07:13;1.33;;;0.20;;
29466;SDS011;60968;37.490;-122.288;2023-04-08T02:10:14;1.97;;;0.40;;
29466;SDS011;60968;37.490;-122.288;2023-04-08T02:13:20;1.00;;;0.17;;
29466;SDS011;60968;37.490;-122.288;2023-04-08T02:16:22;0.23;;;0.20;;
29466;SDS011;60968;37.490;-122.288;2023-04-08T02:19:56;0.53;;;0.20;;
29466;SDS011;60968;37.490;-122.288;2023-04-08T02:26:19;0.63;;;0.30;;
29466;SDS011;60968;37.490;-122.288;2023-04-08T02:29:22;0.73;;;0.30;;
29466;SDS011;60968;37.490;-122.288;2023-04-08T02:32:23;1.50;;;0.30;;
29466;SDS011;60968;37.490;-122.288;2023-04-08T02:35:26;1.53;;;0.40;;
29466;SDS011;60968;37.490;-122.288;2023-04-08T02:38:28;1.53;;;0.50;;
29466;SDS011;60968;37.490;-122.288;2023-04-08T02:41:29;1.80;;;0.37;;
29466;SDS011;60968;37.490;-122.288;2023-04-08T02:44:31;1.97;;;0.50;;
29466;SDS011;60968;37.490;-122.288;2023-04-08T02:47:32;3.23;;;0.67;;
29466;SDS011;60968;37.490;-122.288;2023-04-08T02:50:33;4.27;;;0.50;;
29466;SDS011;60968;37.490;-122.288;2023-04-08T02:53:34;5.13;;;0.60;;
29466;SDS011;60968;37.490;-122.288;2023-04-08T02:56:35;4.83;;;0.80;;
29466;SDS011;60968;37.490;-122.288;2023-04-08T02:59:36;3.93;;;0.83;;
29466;SDS011;60968;37.490;-122.288;2023-04-08T03:02:37;3.00;;;0.70;;
29466;SDS011;60968;37.490;-122.288;2023-04-08T03:05:38;3.70;;;0.70;;
29466;SDS011;60968;37.490;-122.288;2023-04-08T03:08:39;3.13;;;0.70;;
29466;SDS011;60968;37.490;-122.288;2023-04-08T03:11:40;6.23;;;1.03;;
29466;SDS011;60968;37.490;-122.288;2023-04-08T03:14:41;5.47;;;0.50;;
29466;SDS011;60968;37.490;-122.288;2023-04-08T03:17:42;2.97;;;0.70;;
29466;SDS011;60968;37.490;-122.288;2023-04-08T03:20:43;4.57;;;0.70;;
29466;SDS011;60968;37.490;-122.288;2023-04-08T03:23:44;2.70;;;0.57;;
29466;SDS011;60968;37.490;-122.288;2023-04-08T03:26:45;3.07;;;0.60;;
29466;SDS011;60968;37.490;-122.288;2023-04-08T03:29:46;5.03;;;1.00;;
29466;SDS011;60968;37.490;-122.288;2023-04-08T03:32:46;2.00;;;0.60;;
29466;SDS011;60968;37.490;-122.288;2023-04-08T03:35:47;2.00;;;0.50;;
29466;SDS011;60968;37.490;-122.288;2023-04-08T03:38:48;4.50;;;1.07;;
29466;SDS011;60968;37.490;-122.288;2023-04-08T03:41:49;3.07;;;0.50;;
29466;SDS011;60968;37.490;-122.288;2023-04-08T03:44:50;7.27;;;1.07;;
29466;SDS011;60968;37.490;-122.288;2023-04-08T03:47:51;5.83;;;0.73;;
29466;SDS011;60968;37.490;-122.288;2023-04-08T03:50:52;2.10;;;0.73;;
29466;SDS011;60968;37.490;-122.288;2023-04-08T03:53:52;4.00;;;0.60;;
29466;SDS011;60968;37.490;-122.288;2023-04-08T03:56:55;2.53;;;0.70;;
29466;SDS011;60968;37.490;-122.288;2023-04-08T03:59:56;2.97;;;0.70;;
29466;SDS011;60968;37.490;-122.288;2023-04-08T04:02:57;2.77;;;0.50;;
29466;SDS011;60968;37.490;-122.288;2023-04-08T04:05:58;2.63;;;0.50;;
29466;SDS011;60968;37.490;-122.288;2023-04-08T04:09:00;2.37;;;0.60;;
29466;SDS011;60968;37.490;-122.288;2023-04-08T04:12:01;3.40;;;0.40;;
29466;SDS011;60968;37.490;-122.288;2023-04-08T04:15:02;3.03;;;0.87;;
29466;SDS011;60968;37.490;-122.288;2023-04-08T04:18:03;3.00;;;0.83;;
29466;SDS011;60968;37.490;-122.288;2023-04-08T04:21:04;7.27;;;0.90;;
29466;SDS011;60968;37.490;-122.288;2023-04-08T04:24:05;6.90;;;0.77;;
29466;SDS011;60968;37.490;-122.288;2023-04-08T04:27:06;9.73;;;0.97;;
29466;SDS011;60968;37.490;-122.288;2023-04-08T04:30:08;7.07;;;0.80;;
29466;SDS011;60968;37.490;-122.288;2023-04-08T04:33:11;7.10;;;1.10;;
29466;SDS011;60968;37.490;-122.288;2023-04-08T04:36:12;8.47;;;1.27;;
29466;SDS011;60968;37.490;-122.288;2023-04-08T04:39:13;9.40;;;1.20;;
29466;SDS011;60968;37.490;-122.288;2023-04-08T04:42:14;5.53;;;1.03;;
29466;SDS011;60968;37.490;-122.288;2023-04-08T04:45:15;3.67;;;0.77;;
29466;SDS011;60968;37.490;-122.288;2023-04-08T04:48:17;5.67;;;0.90;;
29466;SDS011;60968;37.490;-122.288;2023-04-08T04:51:18;6.77;;;1.20;;
29466;SDS011;60968;37.490;-122.288;2023-04-08T04:54:19;5.83;;;1.57;;
29466;SDS011;60968;37.490;-122.288;2023-04-08T04:57:20;5.67;;;0.77;;
29466;SDS011;60968;37.490;-122.288;2023-04-08T05:00:22;12.93;;;1.50;;
29466;SDS011;60968;37.490;-122.288;2023-04-08T05:03:23;10.03;;;1.10;;
29466;SDS011;60968;37.490;-122.288;2023-04-08T05:06:24;6.37;;;1.23;;
29466;SDS011;60968;37.490;-122.288;2023-04-08T05:09:25;7.80;;;1.20;;
29466;SDS011;60968;37.490;-122.288;2023-04-08T05:12:26;14.07;;;1.57;;
29466;SDS011;60968;37.490;-122.288;2023-04-08T05:15:27;6.90;;;1.50;;
29466;SDS011;60968;37.490;-122.288;2023-04-08T05:18:28;7.13;;;1.30;;
29466;SDS011;60968;37.490;-122.288;2023-04-08T05:21:30;8.83;;;1.67;;
29466;SDS011;60968;37.490;-122.288;2023-04-08T05:24:31;9.03;;;1.57;;
29466;SDS011;60968;37.490;-122.288;2023-04-08T05:27:35;9.90;;;1.13;;
29466;SDS011;60968;37.490;-122.288;2023-04-08T05:30:35;6.30;;;1.50;;
29466;SDS011;60968;37.490;-122.288;2023-04-08T05:33:36;9.37;;;1.40;;
29466;SDS011;60968;37.490;-122.288;2023-04-08T05:36:37;7.83;;;1.00;;
29466;SDS011;60968;37.490;-122.288;2023-04-08T05:39:38;8.83;;;1.13;;
29466;SDS011;60968;37.490;-122.288;2023-04-08T05:42:40;5.07;;;0.97;;
29466;SDS011;60968;37.490;-122.288;2023-04-08T05:45:42;8.43;;;1.03;;
29466;SDS011;60968;37.490;-122.288;2023-04-08T05:48:43;7.17;;;0.90;;
29466;SDS011;60968;37.490;-122.288;2023-04-08T05:51:44;4.70;;;1.03;;
29466;SDS011;60968;37.490;-122.288;2023-04-08T05:54:48;7.27;;;0.90;;
29466;SDS011;60968;37.490;-122.288;2023-04-08T05:57:49;7.33;;;1.07;;
29466;SDS011;60968;37.490;-122.288;2023-04-08T06:00:50;3.43;;;1.40;;
29466;SDS011;60968;37.490;-122.288;2023-04-08T06:03:51;6.80;;;1.00;;
29466;SDS011;60968;37.490;-122.288;2023-04-08T06:06:52;5.67;;;1.13;;
29466;SDS011;60968;37.490;-122.288;2023-04-08T06:09:53;5.90;;;1.53;;
29466;SDS011;60968;37.490;-122.288;2023-04-08T06:12:54;6.43;;;0.90;;
29466;SDS011;60968;37.490;-122.288;2023-04-08T06:16:09;5.57;;;1.17;;
29466;SDS011;60968;37.490;-122.288;2023-04-08T06:19:15;10.17;;;1.10;;
29466;SDS011;60968;37.490;-122.288;2023-04-08T06:22:16;5.13;;;1.27;;
29466;SDS011;60968;37.490;-122.288;2023-04-08T06:25:17;10.30;;;1.13;;
29466;SDS011;60968;37.490;-122.288;2023-04-08T06:28:18;8.00;;;1.10;;
29466;SDS011;60968;37.490;-122.288;2023-04-08T06:31:18;6.60;;;1.07;;
29466;SDS011;60968;37.490;-122.288;2023-04-08T06:34:19;11.83;;;1.20;;
29466;SDS011;60968;37.490;-122.288;2023-04-08T06:37:21;4.07;;;1.10;;
29466;SDS011;60968;37.490;-122.288;2023-04-08T06:40:21;5.47;;;0.93;;
29466;SDS011;60968;37.490;-122.288;2023-04-08T06:43:22;9.87;;;1.30;;
29466;SDS011;60968;37.490;-122.288;2023-04-08T06:46:23;4.90;;;0.97;;
29466;SDS011;60968;37.490;-122.288;2023-04-08T06:49:24;7.13;;;1.00;;
29466;SDS011;60968;37.490;-122.288;2023-04-08T06:52:25;8.10;;;1.13;;
29466;SDS011;60968;37.490;-122.288;2023-04-08T06:55:26;7.97;;;0.87;;
29466;SDS011;60968;37.490;-122.288;2023-04-08T06:58:27;9.17;;;1.30;;
29466;SDS011;60968;37.490;-122.288;2023-04-08T07:01:28;3.67;;;0.90;;
29466;SDS011;60968;37.490;-122.288;2023-04-08T07:04:29;9.70;;;1.77;;
29466;SDS011;60968;37.490;-122.288;2023-04-08T07:07:29;9.57;;;1.20;;
29466;SDS011;60968;37.490;-122.288;2023-04-08T07:10:30;4.17;;;0.90;;
29466;SDS011;60968;37.490;-122.288;2023-04-08T07:13:31;5.17;;;0.80;;
29466;SDS011;60968;37.490;-122.288;2023-04-08T07:16:32;7.10;;;1.03;;
29466;SDS011;60968;37.490;-122.288;2023-04-08T07:19:33;5.30;;;1.00;;
29466;SDS011;60968;37.490;-122.288;2023-04-08T07:22:34;4.23;;;0.90;;
29466;SDS011;60968;37.490;-122.288;2023-04-08T07:25:35;3.53;;;0.60;;
29466;SDS011;60968;37.490;-122.288;2023-04-08T07:28:39;5.33;;;1.07;;
29466;SDS011;60968;37.490;-122.288;2023-04-08T07:31:41;5.77;;;0.90;;
29466;SDS011;60968;37.490;-122.288;2023-04-08T07:34:43;5.63;;;0.87;;
29466;SDS011;60968;37.490;-122.288;2023-04-08T07:37:44;4.53;;;1.13;;
29466;SDS011;60968;37.490;-122.288;2023-04-08T07:40:45;6.00;;;0.97;;
29466;SDS011;60968;37.490;-122.288;2023-04-08T07:43:46;7.50;;;0.93;;
29466;SDS011;60968;37.490;-122.288;2023-04-08T07:46:47;4.87;;;1.20;;
29466;SDS011;60968;37.490;-122.288;2023-04-08T07:49:49;6.30;;;1.50;;
29466;SDS011;60968;37.490;-122.288;2023-04-08T07:52:50;5.70;;;1.10;;
29466;SDS011;60968;37.490;-122.288;2023-04-08T07:55:51;7.33;;;1.20;;
29466;SDS011;60968;37.490;-122.288;2023-04-08T07:58:52;7.10;;;1.00;;
29466;SDS011;60968;37.490;-122.288;2023-04-08T08:01:53;10.17;;;1.07;;
29466;SDS011;60968;37.490;-122.288;2023-04-08T08:04:54;4.60;;;1.27;;
29466;SDS011;60968;37.490;-122.288;2023-04-08T08:07:56;6.47;;;0.90;;
29466;SDS011;60968;37.490;-122.288;2023-04-08T08:10:57;8.27;;;1.10;;
29466;SDS011;60968;37.490;-122.288;2023-04-08T08:13:58;6.30;;;1.30;;
29466;SDS011;60968;37.490;-122.288;2023-04-08T08:16:59;7.13;;;1.10;;
29466;SDS011;60968;37.490;-122.288;2023-04-08T08:20:02;3.63;;;0.90;;
29466;SDS011;60968;37.490;-122.288;2023-04-08T08:23:03;11.07;;;1.23;;
29466;SDS011;60968;37.490;-122.288;2023-04-08T08:26:05;5.90;;;0.93;;
29466;SDS011;60968;37.490;-122.288;2023-04-08T08:29:07;6.47;;;1.10;;
29466;SDS011;60968;37.490;-122.288;2023-04-08T08:32:09;9.97;;;1.50;;
29466;SDS011;60968;37.490;-122.288;2023-04-08T08:35:11;8.30;;;1.47;;
29466;SDS011;60968;37.490;-122.288;2023-04-08T08:38:12;3.60;;;0.90;;
29466;SDS011;60968;37.490;-122.288;2023-04-08T08:41:12;9.20;;;1.83;;
29466;SDS011;60968;37.490;-122.288;2023-04-08T08:44:15;10.83;;;1.63;;
29466;SDS011;60968;37.490;-122.288;2023-04-08T08:47:16;4.23;;;1.00;;
29466;SDS011;60968;37.490;-122.288;2023-04-08T08:50:17;12.10;;;1.20;;
29466;SDS011;60968;37.490;-122.288;2023-04-08T08:53:21;8.30;;;1.40;;
29466;SDS011;60968;37.490;-122.288;2023-04-08T08:56:29;12.63;;;1.10;;
29466;SDS011;60968;37.490;-122.288;2023-04-08T08:59:32;12.80;;;1.60;;
29466;SDS011;60968;37.490;-122.288;2023-04-08T09:02:33;4.70;;;1.00;;
29466;SDS011;60968;37.490;-122.288;2023-04-08T09:05:46;6.63;;;1.00;;
29466;SDS011;60968;37.490;-122.288;2023-04-08T09:09:07;5.97;;;1.07;;
29466;SDS011;60968;37.490;-122.288;2023-04-08T09:12:08;11.67;;;1.73;;
29466;SDS011;60968;37.490;-122.288;2023-04-08T09:15:09;8.30;;;1.63;;
29466;SDS011;60968;37.490;-122.288;2023-04-08T09:18:20;6.97;;;1.33;;
29466;SDS011;60968;37.490;-122.288;2023-04-08T09:21:22;8.87;;;1.90;;
29466;SDS011;60968;37.490;-122.288;2023-04-08T09:24:27;10.50;;;1.17;;
29466;SDS011;60968;37.490;-122.288;2023-04-08T09:27:34;10.17;;;1.47;;
29466;SDS011;60968;37.490;-122.288;2023-04-08T09:30:35;6.57;;;1.23;;
29466;SDS011;60968;37.490;-122.288;2023-04-08T09:33:36;8.93;;;1.50;;
29466;SDS011;60968;37.490;-122.288;2023-04-08T09:36:37;7.50;;;1.57;;
29466;SDS011;60968;37.490;-122.288;2023-04-08T09:39:38;10.60;;;1.30;;
29466;SDS011;60968;37.490;-122.288;2023-04-08T09:42:43;7.43;;;1.70;;
29466;SDS011;60968;37.490;-122.288;2023-04-08T09:45:46;8.90;;;1.33;;
29466;SDS011;60968;37.490;-122.288;2023-04-08T09:55:40;10.43;;;1.43;;
29466;SDS011;60968;37.490;-122.288;2023-04-08T09:58:45;5.23;;;1.13;;
29466;SDS011;60968;37.490;-122.288;2023-04-08T10:01:54;4.23;;;1.27;;
29466;SDS011;60968;37.490;-122.288;2023-04-08T10:04:58;8.50;;;1.37;;
29466;SDS011;60968;37.490;-122.288;2023-04-08T10:08:04;8.43;;;1.67;;
29466;SDS011;60968;37.490;-122.288;2023-04-08T10:11:06;6.07;;;1.30;;
29466;SDS011;60968;37.490;-122.288;2023-04-08T10:14:08;6.43;;;1.17;;
29466;SDS011;60968;37.490;-122.288;2023-04-08T10:17:25;6.53;;;1.40;;
29466;SDS011;60968;37.490;-122.288;2023-04-08T10:23:52;7.37;;;1.57;;
29466;SDS011;60968;37.490;-122.288;2023-04-08T10:27:23;7.73;;;2.10;;
29466;SDS011;60968;37.490;-122.288;2023-04-08T10:30:43;7.73;;;1.47;;
29466;SDS011;60968;37.490;-122.288;2023-04-08T10:33:46;7.57;;;1.23;;
29466;SDS011;60968;37.490;-122.288;2023-04-08T10:36:48;4.27;;;1.50;;
29466;SDS011;60968;37.490;-122.288;2023-04-08T10:39:49;8.03;;;1.33;;
29466;SDS011;60968;37.490;-122.288;2023-04-08T10:42:56;6.97;;;1.20;;
29466;SDS011;60968;37.490;-122.288;2023-04-08T10:45:58;13.27;;;1.73;;
29466;SDS011;60968;37.490;-122.288;2023-04-08T10:48:59;6.00;;;1.73;;
29466;SDS011;60968;37.490;-122.288;2023-04-08T10:52:00;10.93;;;1.57;;
29466;SDS011;60968;37.490;-122.288;2023-04-08T10:55:07;6.60;;;1.37;;
29466;SDS011;60968;37.490;-122.288;2023-04-08T10:58:09;7.20;;;1.60;;
29466;SDS011;60968;37.490;-122.288;2023-04-08T11:01:10;9.83;;;1.90;;
29466;SDS011;60968;37.490;-122.288;2023-04-08T11:04:16;5.30;;;1.00;;
29466;SDS011;60968;37.490;-122.288;2023-04-08T11:07:19;6.23;;;1.40;;
29466;SDS011;60968;37.490;-122.288;2023-04-08T11:10:20;5.37;;;1.37;;
29466;SDS011;60968;37.490;-122.288;2023-04-08T11:13:21;3.87;;;1.40;;
29466;SDS011;60968;37.490;-122.288;2023-04-08T11:16:28;7.67;;;1.20;;
29466;SDS011;60968;37.490;-122.288;2023-04-08T11:19:29;5.53;;;1.00;;
29466;SDS011;60968;37.490;-122.288;2023-04-08T11:22:30;7.10;;;1.10;;
29466;SDS011;60968;37.490;-122.288;2023-04-08T11:25:32;6.10;;;1.03;;
29466;SDS011;60968;37.490;-122.288;2023-04-08T11:28:33;7.90;;;1.60;;
29466;SDS011;60968;37.490;-122.288;2023-04-08T11:31:35;3.23;;;1.07;;
29466;SDS011;60968;37.490;-122.288;2023-04-08T11:34:38;5.57;;;1.50;;
29466;SDS011;60968;37.490;-122.288;2023-04-08T11:37:41;6.47;;;1.47;;
29466;SDS011;60968;37.490;-122.288;2023-04-08T11:40:51;10.70;;;1.30;;
29466;SDS011;60968;37.490;-122.288;2023-04-08T11:43:56;10.70;;;1.20;;
29466;SDS011;60968;37.490;-122.288;2023-04-08T11:46:58;8.93;;;1.57;;
29466;SDS011;60968;37.490;-122.288;2023-04-08T11:49:59;10.23;;;1.40;;
29466;SDS011;60968;37.490;-122.288;2023-04-08T11:53:00;12.60;;;1.87;;
29466;SDS011;60968;37.490;-122.288;2023-04-08T11:56:21;9.97;;;1.50;;
29466;SDS011;60968;37.490;-122.288;2023-04-08T11:59:24;9.90;;;1.60;;
29466;SDS011;60968;37.490;-122.288;2023-04-08T12:02:25;9.73;;;1.40;;
29466;SDS011;60968;37.490;-122.288;2023-04-08T12:05:26;7.37;;;1.50;;
29466;SDS011;60968;37.490;-122.288;2023-04-08T12:08:27;4.67;;;1.40;;
29466;SDS011;60968;37.490;-122.288;2023-04-08T12:11:28;5.50;;;1.50;;
29466;SDS011;60968;37.490;-122.288;2023-04-08T12:14:29;8.20;;;1.30;;
29466;SDS011;60968;37.490;-122.288;2023-04-08T12:17:30;7.27;;;1.20;;
29466;SDS011;60968;37.490;-122.288;2023-04-08T12:20:31;4.97;;;1.90;;
29466;SDS011;60968;37.490;-122.288;2023-04-08T12:23:32;9.90;;;2.10;;
29466;SDS011;60968;37.490;-122.288;2023-04-08T12:26:34;10.70;;;1.50;;
29466;SDS011;60968;37.490;-122.288;2023-04-08T12:29:35;10.83;;;1.97;;
29466;SDS011;60968;37.490;-122.288;2023-04-08T12:32:36;5.73;;;1.40;;
29466;SDS011;60968;37.490;-122.288;2023-04-08T12:35:37;6.20;;;1.50;;
29466;SDS011;60968;37.490;-122.288;2023-04-08T12:38:41;7.33;;;1.90;;
29466;SDS011;60968;37.490;-122.288;2023-04-08T12:41:42;7.70;;;1.70;;
29466;SDS011;60968;37.490;-122.288;2023-04-08T12:44:42;7.13;;;1.83;;
29466;SDS011;60968;37.490;-122.288;2023-04-08T12:47:45;11.53;;;1.80;;
29466;SDS011;60968;37.490;-122.288;2023-04-08T12:50:45;12.83;;;1.53;;
29466;SDS011;60968;37.490;-122.288;2023-04-08T12:53:48;10.57;;;2.10;;
29466;SDS011;60968;37.490;-122.288;2023-04-08T12:56:49;10.50;;;1.80;;
29466;SDS011;60968;37.490;-122.288;2023-04-08T12:59:50;4.37;;;1.40;;
29466;SDS011;60968;37.490;-122.288;2023-04-08T13:02:51;20.43;;;2.57;;
29466;SDS011;60968;37.490;-122.288;2023-04-08T13:05:52;12.47;;;1.67;;
29466;SDS011;60968;37.490;-122.288;2023-04-08T13:08:53;7.70;;;1.93;;
29466;SDS011;60968;37.490;-122.288;2023-04-08T13:11:54;10.43;;;1.50;;
29466;SDS011;60968;37.490;-122.288;2023-04-08T13:14:55;8.53;;;1.40;;
29466;SDS011;60968;37.490;-122.288;2023-04-08T13:17:56;11.83;;;1.90;;
29466;SDS011;60968;37.490;-122.288;2023-04-08T13:20:59;12.77;;;2.03;;
29466;SDS011;60968;37.490;-122.288;2023-04-08T13:24:00;10.10;;;2.40;;
29466;SDS011;60968;37.490;-122.288;2023-04-08T13:27:01;6.00;;;1.77;;
29466;SDS011;60968;37.490;-122.288;2023-04-08T13:30:02;12.47;;;2.37;;
29466;SDS011;60968;37.490;-122.288;2023-04-08T13:33:04;10.27;;;2.90;;
29466;SDS011;60968;37.490;-122.288;2023-04-08T13:36:05;15.40;;;2.90;;
29466;SDS011;60968;37.490;-122.288;2023-04-08T13:39:06;18.40;;;4.00;;
29466;SDS011;60968;37.490;-122.288;2023-04-08T13:42:07;13.17;;;3.47;;
29466;SDS011;60968;37.490;-122.288;2023-04-08T13:45:08;13.83;;;4.00;;
29466;SDS011;60968;37.490;-122.288;2023-04-08T13:48:09;13.27;;;3.20;;
29466;SDS011;60968;37.490;-122.288;2023-04-08T13:51:10;16.10;;;3.37;;
29466;SDS011;60968;37.490;-122.288;2023-04-08T13:54:11;19.40;;;4.03;;
29466;SDS011;60968;37.490;-122.288;2023-04-08T13:57:13;10.63;;;2.80;;
29466;SDS011;60968;37.490;-122.288;2023-04-08T14:00:15;17.27;;;2.93;;
29466;SDS011;60968;37.490;-122.288;2023-04-08T14:03:16;25.20;;;3.60;;
29466;SDS011;60968;37.490;-122.288;2023-04-08T14:06:19;10.63;;;2.53;;
29466;SDS011;60968;37.490;-122.288;2023-04-08T14:09:19;15.97;;;2.93;;
29466;SDS011;60968;37.490;-122.288;2023-04-08T14:12:21;18.63;;;3.63;;
29466;SDS011;60968;37.490;-122.288;2023-04-08T14:15:23;15.40;;;3.70;;
29466;SDS011;60968;37.490;-122.288;2023-04-08T14:18:25;17.60;;;3.30;;
29466;SDS011;60968;37.490;-122.288;2023-04-08T14:21:27;14.07;;;3.10;;
29466;SDS011;60968;37.490;-122.288;2023-04-08T14:24:27;17.77;;;2.90;;
29466;SDS011;60968;37.490;-122.288;2023-04-08T14:27:28;20.40;;;3.60;;
29466;SDS011;60968;37.490;-122.288;2023-04-08T14:30:29;10.90;;;3.53;;
29466;SDS011;60968;37.490;-122.288;2023-04-08T14:33:30;15.03;;;3.03;;
29466;SDS011;60968;37.490;-122.288;2023-04-08T14:36:32;15.57;;;3.20;;
29466;SDS011;60968;37.490;-122.288;2023-04-08T14:39:34;16.03;;;3.30;;
29466;SDS011;60968;37.490;-122.288;2023-04-08T14:42:35;11.47;;;2.93;;
29466;SDS011;60968;37.490;-122.288;2023-04-08T14:45:36;17.93;;;2.93;;
29466;SDS011;60968;37.490;-122.288;2023-04-08T14:48:37;19.20;;;3.30;;
29466;SDS011;60968;37.490;-122.288;2023-04-08T14:51:39;14.10;;;2.87;;
29466;SDS011;60968;37.490;-122.288;2023-04-08T14:54:40;18.57;;;2.77;;
29466;SDS011;60968;37.490;-122.288;2023-04-08T14:57:41;10.43;;;1.83;;
29466;SDS011;60968;37.490;-122.288;2023-04-08T15:00:42;9.50;;;2.20;;
29466;SDS011;60968;37.490;-122.288;2023-04-08T15:03:44;9.37;;;2.13;;
29466;SDS011;60968;37.490;-122.288;2023-04-08T15:06:45;6.37;;;1.40;;
29466;SDS011;60968;37.490;-122.288;2023-04-08T15:09:48;10.03;;;1.67;;
29466;SDS011;60968;37.490;-122.288;2023-04-08T15:12:49;6.90;;;1.30;;
29466;SDS011;60968;37.490;-122.288;2023-04-08T15:15:50;6.90;;;1.33;;
29466;SDS011;60968;37.490;-122.288;2023-04-08T15:18:51;7.07;;;1.70;;
29466;SDS011;60968;37.490;-122.288;2023-04-08T15:21:53;6.70;;;1.53;;
29466;SDS011;60968;37.490;-122.288;2023-04-08T15:24:53;4.53;;;1.10;;
29466;SDS011;60968;37.490;-122.288;2023-04-08T15:27:55;4.73;;;1.20;;
29466;SDS011;60968;37.490;-122.288;2023-04-08T15:30:56;6.73;;;1.17;;
29466;SDS011;60968;37.490;-122.288;2023-04-08T15:33:57;5.53;;;1.30;;
29466;SDS011;60968;37.490;-122.288;2023-04-08T15:36:59;6.63;;;1.43;;
29466;SDS011;60968;37.490;-122.288;2023-04-08T15:40:01;7.37;;;1.30;;
29466;SDS011;60968;37.490;-122.288;2023-04-08T15:43:02;4.67;;;1.30;;
29466;SDS011;60968;37.490;-122.288;2023-04-08T15:46:04;5.10;;;1.67;;
29466;SDS011;60968;37.490;-122.288;2023-04-08T15:49:07;5.30;;;1.37;;
29466;SDS011;60968;37.490;-122.288;2023-04-08T15:52:08;3.43;;;0.93;;
29466;SDS011;60968;37.490;-122.288;2023-04-08T15:55:09;2.67;;;1.00;;
29466;SDS011;60968;37.490;-122.288;2023-04-08T15:58:13;5.23;;;1.40;;
29466;SDS011;60968;37.490;-122.288;2023-04-08T16:01:15;7.03;;;1.30;;
29466;SDS011;60968;37.490;-122.288;2023-04-08T16:04:16;4.93;;;1.07;;
29466;SDS011;60968;37.490;-122.288;2023-04-08T16:07:17;6.07;;;1.47;;
29466;SDS011;60968;37.490;-122.288;2023-04-08T16:10:19;4.73;;;1.33;;
29466;SDS011;60968;37.490;-122.288;2023-04-08T16:13:26;6.13;;;1.13;;
29466;SDS011;60968;37.490;-122.288;2023-04-08T16:16:27;8.10;;;1.30;;
29466;SDS011;60968;37.490;-122.288;2023-04-08T16:19:28;7.50;;;1.30;;
29466;SDS011;60968;37.490;-122.288;2023-04-08T16:22:29;6.67;;;1.30;;
29466;SDS011;60968;37.490;-122.288;2023-04-08T16:25:30;5.50;;;0.77;;
29466;SDS011;60968;37.490;-122.288;2023-04-08T16:28:32;6.80;;;1.23;;
29466;SDS011;60968;37.490;-122.288;2023-04-08T16:31:37;4.87;;;1.13;;
29466;SDS011;60968;37.490;-122.288;2023-04-08T16:34:44;5.47;;;1.33;;
29466;SDS011;60968;37.490;-122.288;2023-04-08T16:37:47;5.60;;;1.33;;
29466;SDS011;60968;37.490;-122.288;2023-04-08T16:40:50;6.63;;;0.80;;
29466;SDS011;60968;37.490;-122.288;2023-04-08T16:43:51;5.20;;;0.80;;
29466;SDS011;60968;37.490;-122.288;2023-04-08T16:46:52;7.37;;;1.10;;
29466;SDS011;60968;37.490;-122.288;2023-04-08T16:49:55;7.53;;;1.63;;
29466;SDS011;60968;37.490;-122.288;2023-04-08T16:52:57;4.40;;;1.30;;
29466;SDS011;60968;37.490;-122.288;2023-04-08T16:55:58;10.03;;;1.30;;
29466;SDS011;60968;37.490;-122.288;2023-04-08T16:59:00;7.67;;;1.33;;
29466;SDS011;60968;37.490;-122.288;2023-04-08T17:02:03;5.77;;;1.23;;
29466;SDS011;60968;37.490;-122.288;2023-04-08T17:05:04;8.10;;;1.37;;
29466;SDS011;60968;37.490;-122.288;2023-04-08T17:08:05;5.30;;;1.53;;
29466;SDS011;60968;37.490;-122.288;2023-04-08T17:11:09;6.07;;;1.10;;
29466;SDS011;60968;37.490;-122.288;2023-04-08T17:14:12;3.57;;;1.10;;
29466;SDS011;60968;37.490;-122.288;2023-04-08T17:17:13;5.10;;;1.00;;
29466;SDS011;60968;37.490;-122.288;2023-04-08T17:20:15;5.53;;;1.40;;
29466;SDS011;60968;37.490;-122.288;2023-04-08T17:23:16;8.23;;;1.73;;
29466;SDS011;60968;37.490;-122.288;2023-04-08T17:26:17;3.27;;;1.30;;
29466;SDS011;60968;37.490;-122.288;2023-04-08T17:29:18;3.10;;;1.20;;
29466;SDS011;60968;37.490;-122.288;2023-04-08T17:32:19;3.77;;;1.10;;
29466;SDS011;60968;37.490;-122.288;2023-04-08T17:35:21;4.80;;;1.20;;
29466;SDS011;60968;37.490;-122.288;2023-04-08T17:38:22;7.70;;;1.17;;
29466;SDS011;60968;37.490;-122.288;2023-04-08T17:41:23;3.87;;;1.50;;